createdAt,value
2022-10-23T00:01:28.318Z,11.55
2022-10-23T00:04:08.652Z,10.65
2022-10-23T00:06:35.821Z,10.30
2022-10-23T00:09:03.474Z,11.15
2022-10-23T00:11:30.994Z,10.90
2022-10-23T00:14:00.290Z,11.32
2022-10-23T00:16:27.245Z,11.13
2022-10-23T00:18:53.497Z,11.73
2022-10-23T00:21:20.068Z,11.55
2022-10-23T00:23:46.625Z,11.13
2022-10-23T00:26:16.405Z,11.02
2022-10-23T00:28:43.643Z,10.40
2022-10-23T00:31:10.411Z,11.48
2022-10-23T00:33:36.728Z,10.80
2022-10-23T00:36:06.959Z,10.93
2022-10-23T00:38:33.215Z,9.98
2022-10-23T00:40:59.521Z,11.20
2022-10-23T00:43:27.165Z,10.80
2022-10-23T00:45:53.712Z,11.27
2022-10-23T00:48:20.299Z,10.45
2022-10-23T00:50:47.588Z,10.32
2022-10-23T00:53:14.929Z,11.73
2022-10-23T00:55:45.860Z,10.82
2022-10-23T00:58:13.778Z,10.60
2022-10-23T01:00:51.141Z,10.82
2022-10-23T01:03:19.023Z,10.38
2022-10-23T01:05:48.787Z,11.30
2022-10-23T01:08:35.313Z,11.43
2022-10-23T01:11:10.036Z,10.93
2022-10-23T01:13:43.515Z,11.05
2022-10-23T01:16:21.100Z,10.70
2022-10-23T01:19:01.671Z,10.43
2022-10-23T01:21:34.784Z,11.40
2022-10-23T01:24:04.313Z,11.60
2022-10-23T01:26:39.401Z,11.60
2022-10-23T01:29:05.624Z,10.30
2022-10-23T01:31:37.206Z,10.60
2022-10-23T01:34:09.788Z,10.07
2022-10-23T01:36:38.279Z,10.82
2022-10-23T01:39:09.605Z,10.55
2022-10-23T01:41:39.500Z,10.77
2022-10-23T01:44:15.103Z,10.50
2022-10-23T01:46:42.825Z,10.25
2022-10-23T01:49:10.794Z,10.98
2022-10-23T01:51:38.488Z,10.15
2022-10-23T01:54:07.098Z,10.18
2022-10-23T01:56:35.013Z,11.00
2022-10-23T01:59:03.109Z,10.50
2022-10-23T02:01:30.412Z,11.23
2022-10-23T02:06:23.800Z,9.40
2022-10-23T02:08:50.169Z,9.80
2022-10-23T02:11:21.115Z,10.35
2022-10-23T02:13:59.632Z,10.68
2022-10-23T02:16:36.908Z,9.65
2022-10-23T02:19:03.148Z,9.65
2022-10-23T02:21:33.035Z,9.85
2022-10-23T02:24:02.211Z,10.25
2022-10-23T02:26:36.661Z,10.13
2022-10-23T02:29:09.343Z,9.82
2022-10-23T02:31:36.069Z,8.57
2022-10-23T02:34:03.026Z,9.18
2022-10-23T02:36:29.318Z,9.93
2022-10-23T02:38:55.581Z,8.65
2022-10-23T02:41:31.128Z,10.07
2022-10-23T02:46:34.837Z,9.02
2022-10-23T02:49:04.279Z,9.45
2022-10-23T02:51:41.870Z,10.10
2022-10-23T02:54:11.991Z,8.77
2022-10-23T02:56:38.703Z,9.38
2022-10-23T02:59:05.032Z,8.80
2022-10-23T03:01:48.398Z,9.48
2022-10-23T03:04:15.957Z,8.93
2022-10-23T03:06:42.641Z,9.27
2022-10-23T03:09:09.431Z,9.57
2022-10-23T03:11:36.069Z,8.80
2022-10-23T03:14:02.788Z,9.10
2022-10-23T03:16:29.060Z,8.93
2022-10-23T03:18:55.403Z,10.63
2022-10-23T03:21:21.702Z,8.85
2022-10-23T03:23:47.969Z,7.82
2022-10-23T03:26:14.249Z,8.05
2022-10-23T03:28:40.534Z,8.48
2022-10-23T03:31:06.861Z,9.15
2022-10-23T03:33:33.169Z,9.02
2022-10-23T03:35:59.426Z,8.63
2022-10-23T03:38:25.691Z,8.50
2022-10-23T03:40:52.042Z,7.78
2022-10-23T03:43:18.377Z,8.20
2022-10-23T03:45:44.637Z,8.25
2022-10-23T03:48:10.910Z,8.13
2022-10-23T03:50:37.207Z,8.90
2022-10-23T03:53:03.486Z,8.02
2022-10-23T03:55:29.716Z,7.63
2022-10-23T03:57:55.976Z,7.97
2022-10-23T04:00:22.454Z,7.88
2022-10-23T04:02:48.986Z,8.13
2022-10-23T04:05:15.482Z,7.90
2022-10-23T04:07:41.811Z,6.80
2022-10-23T04:10:08.315Z,7.80
2022-10-23T04:12:35.172Z,7.32
2022-10-23T04:15:01.428Z,8.38
2022-10-23T04:19:59.584Z,7.00
2022-10-23T04:22:28.285Z,6.95
2022-10-23T04:24:55.027Z,7.25
2022-10-23T04:27:21.448Z,7.25
2022-10-23T04:29:47.828Z,6.90
2022-10-23T04:32:14.235Z,7.03
2022-10-23T04:34:40.503Z,7.10
2022-10-23T04:37:06.825Z,6.47
2022-10-23T04:39:33.094Z,8.02
2022-10-23T04:41:59.367Z,6.93
2022-10-23T04:44:25.645Z,6.88
2022-10-23T04:46:51.870Z,7.40
2022-10-23T04:49:18.211Z,7.00
2022-10-23T04:51:44.526Z,8.40
2022-10-23T04:54:10.769Z,7.47
2022-10-23T04:56:37.138Z,6.82
2022-10-23T04:59:03.606Z,6.70
2022-10-23T05:01:29.936Z,7.13
2022-10-23T05:03:57.321Z,6.63
2022-10-23T05:06:23.690Z,6.45
2022-10-23T05:08:50.333Z,6.53
2022-10-23T05:11:16.622Z,6.50
2022-10-23T05:13:42.907Z,7.00
2022-10-23T05:16:09.545Z,6.60
2022-10-23T05:18:37.939Z,7.53
2022-10-23T05:21:07.579Z,7.03
2022-10-23T05:23:35.839Z,7.65
2022-10-23T05:26:03.351Z,6.50
2022-10-23T05:28:29.615Z,7.03
2022-10-23T05:30:58.781Z,6.72
2022-10-23T05:33:25.416Z,6.50
2022-10-23T05:35:51.964Z,8.43
2022-10-23T05:38:18.561Z,7.07
2022-10-23T05:40:44.921Z,6.80
2022-10-23T05:43:11.189Z,6.57
2022-10-23T05:45:37.444Z,7.07
2022-10-23T05:48:11.141Z,7.13
2022-10-23T05:50:43.228Z,8.82
2022-10-23T05:53:12.306Z,7.00
2022-10-23T05:55:38.647Z,6.05
2022-10-23T05:58:04.967Z,6.95
2022-10-23T06:00:31.368Z,7.38
2022-10-23T06:03:01.122Z,7.72
2022-10-23T06:05:27.510Z,7.38
2022-10-23T06:07:57.476Z,6.95
2022-10-23T06:10:23.753Z,6.70
2022-10-23T06:12:51.335Z,7.20
2022-10-23T06:15:17.663Z,7.00
2022-10-23T06:17:44.348Z,6.53
2022-10-23T06:20:11.096Z,6.40
2022-10-23T06:22:37.329Z,6.25
2022-10-23T06:25:03.808Z,6.20
2022-10-23T06:27:30.091Z,7.32
2022-10-23T06:29:56.378Z,7.25
2022-10-23T06:32:22.686Z,6.45
2022-10-23T06:34:49.077Z,7.18
2022-10-23T06:37:15.389Z,6.93
2022-10-23T06:39:41.821Z,7.63
2022-10-23T06:42:08.064Z,7.05
2022-10-23T06:44:34.484Z,6.57
2022-10-23T06:47:02.184Z,7.57
2022-10-23T06:49:28.536Z,7.03
2022-10-23T06:51:54.807Z,7.75
2022-10-23T06:54:21.447Z,8.00
2022-10-23T06:56:47.878Z,7.47
2022-10-23T06:59:15.083Z,8.02
2022-10-23T07:01:41.713Z,7.50
2022-10-23T07:04:08.099Z,7.47
2022-10-23T07:06:34.391Z,7.22
2022-10-23T07:09:00.667Z,7.72
2022-10-23T07:11:27.803Z,7.30
2022-10-23T07:13:54.057Z,8.00
2022-10-23T07:16:21.427Z,7.10
2022-10-23T07:18:48.462Z,7.32
2022-10-23T07:21:14.905Z,7.50
2022-10-23T07:23:41.221Z,7.05
2022-10-23T07:26:08.873Z,7.80
2022-10-23T07:28:35.530Z,8.05
2022-10-23T07:31:02.084Z,6.60
2022-10-23T07:33:28.676Z,6.90
2022-10-23T07:35:55.009Z,6.88
2022-10-23T07:38:21.551Z,7.32
2022-10-23T07:40:47.899Z,7.00
2022-10-23T07:43:14.348Z,7.68
2022-10-23T07:45:41.160Z,7.43
2022-10-23T07:48:08.838Z,6.93
2022-10-23T07:50:37.368Z,7.40
2022-10-23T07:53:03.641Z,8.10
2022-10-23T07:55:29.925Z,7.22
2022-10-23T07:57:56.214Z,7.05
2022-10-23T08:02:53.877Z,6.72
2022-10-23T08:05:20.450Z,7.07
2022-10-23T08:07:47.022Z,7.63
2022-10-23T08:10:13.299Z,7.10
2022-10-23T08:12:39.637Z,7.35
2022-10-23T08:15:06.178Z,7.20
2022-10-23T08:17:32.488Z,7.28
2022-10-23T08:19:58.768Z,7.00
2022-10-23T08:22:25.097Z,6.80
2022-10-23T08:24:51.536Z,6.43
2022-10-23T08:27:17.857Z,7.22
2022-10-23T08:29:44.260Z,7.25
2022-10-23T08:32:10.614Z,6.50
2022-10-23T08:34:37.863Z,7.25
2022-10-23T08:37:04.170Z,7.15
2022-10-23T08:39:30.504Z,6.45
2022-10-23T08:41:57.617Z,7.15
2022-10-23T08:44:35.781Z,7.22
2022-10-23T08:47:05.671Z,6.43
2022-10-23T08:49:50.755Z,6.75
2022-10-23T08:52:21.985Z,5.60
2022-10-23T08:55:07.276Z,6.50
2022-10-23T08:57:40.031Z,6.53
2022-10-23T09:00:13.131Z,6.15
2022-10-23T09:02:42.293Z,6.07
2022-10-23T09:05:13.160Z,5.40
2022-10-23T09:07:54.047Z,5.68
2022-10-23T09:10:38.392Z,6.50
2022-10-23T09:13:20.298Z,6.47
2022-10-23T09:15:49.463Z,5.43
2022-10-23T09:18:17.350Z,5.72
2022-10-23T09:20:46.820Z,5.95
2022-10-23T09:23:15.972Z,5.57
2022-10-23T09:25:42.453Z,6.15
2022-10-23T09:28:17.291Z,5.40
2022-10-23T09:30:43.564Z,5.97
2022-10-23T09:33:21.763Z,5.50
2022-10-23T09:35:52.817Z,5.68
2022-10-23T09:38:26.914Z,5.57
2022-10-23T09:40:53.411Z,4.60
2022-10-23T09:43:25.827Z,6.03
2022-10-23T09:46:00.033Z,4.93
2022-10-23T09:48:26.840Z,4.70
2022-10-23T09:50:58.012Z,4.75
2022-10-23T09:53:30.914Z,5.53
2022-10-23T09:55:59.029Z,4.70
2022-10-23T09:58:29.846Z,5.47
2022-10-23T10:00:57.070Z,4.88
2022-10-23T10:03:24.135Z,5.38
2022-10-23T10:06:00.690Z,4.90
2022-10-23T10:08:45.608Z,4.72
2022-10-23T10:11:22.512Z,5.40
2022-10-23T10:13:54.209Z,5.22
2022-10-23T10:16:30.448Z,4.53
2022-10-23T10:19:00.370Z,4.53
2022-10-23T10:21:32.664Z,4.07
2022-10-23T10:24:11.090Z,4.05
2022-10-23T10:26:52.853Z,4.63
2022-10-23T10:29:25.969Z,5.10
2022-10-23T10:31:58.658Z,4.45
2022-10-23T10:34:34.101Z,4.47
2022-10-23T10:39:49.670Z,4.53
2022-10-23T10:42:34.843Z,4.30
2022-10-23T10:45:21.533Z,4.43
2022-10-23T10:47:59.839Z,4.65
2022-10-23T10:50:26.174Z,4.30
2022-10-23T10:53:04.417Z,4.68
2022-10-23T10:55:37.589Z,4.53
2022-10-23T10:58:10.745Z,4.00
2022-10-23T11:00:37.086Z,4.60
2022-10-23T11:03:06.398Z,4.30
2022-10-23T11:05:42.390Z,4.60
2022-10-23T11:08:11.799Z,4.45
2022-10-23T11:10:40.839Z,3.67
2022-10-23T11:13:18.500Z,3.90
2022-10-23T11:15:44.998Z,4.35
2022-10-23T11:18:18.927Z,3.97
2022-10-23T11:21:14.341Z,4.07
2022-10-23T11:23:48.894Z,3.33
2022-10-23T11:26:21.644Z,4.13
2022-10-23T11:29:06.435Z,3.72
2022-10-23T11:31:44.295Z,4.53
2022-10-23T11:34:22.882Z,3.85
2022-10-23T11:36:51.729Z,3.97
2022-10-23T11:39:25.931Z,3.60
2022-10-23T11:41:54.627Z,3.78
2022-10-23T11:44:27.844Z,4.38
2022-10-23T11:47:04.412Z,4.32
2022-10-23T11:49:30.804Z,3.75
2022-10-23T11:52:01.083Z,4.32
2022-10-23T11:54:27.720Z,3.80
2022-10-23T11:57:14.320Z,3.58
2022-10-23T11:59:51.945Z,3.75
2022-10-23T12:02:31.744Z,3.53
2022-10-23T12:05:06.271Z,3.00
2022-10-23T12:07:41.912Z,3.25
2022-10-23T12:10:17.607Z,3.28
2022-10-23T12:15:16.065Z,3.00
2022-10-23T12:17:43.319Z,3.38
2022-10-23T12:20:12.510Z,2.67
2022-10-23T12:22:48.053Z,3.17
2022-10-23T12:25:19.725Z,3.13
2022-10-23T12:27:57.888Z,2.90
2022-10-23T12:30:44.357Z,2.88
2022-10-23T12:33:29.422Z,3.13
2022-10-23T12:36:31.533Z,3.45
2022-10-23T12:38:58.771Z,3.17
2022-10-23T12:41:29.484Z,3.75
2022-10-23T12:44:01.226Z,3.40
2022-10-23T12:46:30.360Z,2.72
2022-10-23T12:48:57.426Z,3.03
2022-10-23T12:51:25.380Z,2.85
2022-10-23T12:53:51.766Z,2.35
2022-10-23T12:56:18.480Z,2.97
2022-10-23T12:58:48.983Z,3.00
2022-10-23T13:01:23.188Z,3.22
2022-10-23T13:03:50.296Z,3.08
2022-10-23T13:06:16.858Z,2.90
2022-10-23T13:08:45.006Z,4.22
2022-10-23T13:11:15.351Z,2.80
2022-10-23T13:13:42.100Z,2.90
2022-10-23T13:16:18.955Z,3.00
2022-10-23T13:18:45.394Z,3.47
2022-10-23T13:21:20.840Z,2.78
2022-10-23T13:26:25.627Z,4.18
2022-10-23T13:28:52.106Z,3.38
2022-10-23T13:31:18.345Z,3.03
2022-10-23T13:33:48.572Z,2.95
2022-10-23T13:36:14.823Z,2.85
2022-10-23T13:38:42.204Z,2.85
2022-10-23T13:41:13.303Z,3.00
2022-10-23T13:43:39.612Z,2.55
2022-10-23T13:46:06.067Z,2.60
2022-10-23T13:48:32.591Z,2.80
2022-10-23T13:51:03.106Z,2.53
2022-10-23T13:53:30.450Z,2.70
2022-10-23T13:55:58.730Z,2.40
2022-10-23T13:58:25.205Z,2.90
2022-10-23T14:00:53.123Z,2.83
2022-10-23T14:03:20.729Z,2.42
2022-10-23T14:05:46.984Z,2.65
2022-10-23T14:08:13.208Z,2.60
2022-10-23T14:10:39.465Z,2.92
2022-10-23T14:13:06.128Z,2.67
2022-10-23T14:15:32.399Z,2.97
2022-10-23T14:18:00.170Z,2.83
2022-10-23T14:20:28.330Z,2.67
2022-10-23T14:22:54.686Z,3.10
2022-10-23T14:25:21.435Z,2.33
2022-10-23T14:27:47.766Z,2.20
2022-10-23T14:30:14.186Z,2.85
2022-10-23T14:32:40.844Z,2.70
2022-10-23T14:35:07.483Z,2.60
2022-10-23T14:37:34.506Z,2.70
2022-10-23T14:40:00.831Z,2.33
2022-10-23T14:42:33.978Z,3.22
2022-10-23T14:45:01.793Z,2.88
2022-10-23T14:47:28.345Z,3.00
2022-10-23T14:49:54.762Z,2.60
2022-10-23T14:52:21.301Z,3.45
2022-10-23T14:54:47.530Z,2.45
2022-10-23T14:57:16.527Z,3.67
2022-10-23T14:59:43.128Z,2.85
2022-10-23T15:02:10.624Z,2.92
2022-10-23T15:04:37.018Z,3.13
2022-10-23T15:07:03.421Z,3.05
2022-10-23T15:09:32.385Z,3.65
2022-10-23T15:11:58.641Z,2.60
2022-10-23T15:14:24.931Z,2.60
2022-10-23T15:16:51.485Z,3.10
2022-10-23T15:19:18.817Z,2.80
2022-10-23T15:21:46.058Z,2.72
2022-10-23T15:24:12.357Z,2.65
2022-10-23T15:26:39.457Z,2.60
2022-10-23T15:29:06.607Z,2.90
2022-10-23T15:31:38.578Z,2.78
2022-10-23T15:34:05.498Z,2.92
2022-10-23T15:36:31.930Z,3.50
2022-10-23T15:38:58.762Z,4.20
2022-10-23T15:41:29.711Z,3.33
2022-10-23T15:43:56.066Z,3.17
2022-10-23T15:46:22.362Z,3.25
2022-10-23T15:48:48.604Z,3.38
2022-10-23T15:51:14.894Z,3.50
2022-10-23T15:53:41.171Z,3.60
2022-10-23T15:56:07.606Z,3.03
2022-10-23T15:58:33.875Z,3.65
2022-10-23T16:01:06.380Z,3.72
2022-10-23T16:03:36.795Z,3.70
2022-10-23T16:06:04.197Z,3.22
2022-10-23T16:08:30.515Z,4.18
2022-10-23T16:10:56.953Z,3.17
2022-10-23T16:13:23.205Z,3.30
2022-10-23T16:15:49.831Z,3.53
2022-10-23T16:18:18.001Z,3.22
2022-10-23T16:20:44.299Z,3.72
2022-10-23T16:23:10.514Z,3.63
2022-10-23T16:25:37.354Z,3.63
2022-10-23T16:28:04.220Z,3.75
2022-10-23T16:30:30.494Z,3.47
2022-10-23T16:32:56.881Z,4.03
2022-10-23T16:35:24.407Z,3.53
2022-10-23T16:37:51.030Z,4.38
2022-10-23T16:40:17.317Z,3.50
2022-10-23T16:42:45.087Z,3.95
2022-10-23T16:45:11.617Z,3.85
2022-10-23T16:47:37.914Z,2.88
2022-10-23T16:50:04.354Z,3.60
2022-10-23T16:52:30.816Z,3.72
2022-10-23T16:54:57.109Z,3.80
2022-10-23T16:57:23.356Z,4.05
2022-10-23T16:59:50.188Z,4.00
2022-10-23T17:02:17.013Z,4.38
2022-10-23T17:04:43.573Z,3.65
2022-10-23T17:07:12.928Z,3.30
2022-10-23T17:09:40.307Z,4.00
2022-10-23T17:12:06.801Z,3.67
2022-10-23T17:14:34.191Z,3.70
2022-10-23T17:17:01.561Z,3.83
2022-10-23T17:19:45.655Z,3.55
2022-10-23T17:22:13.135Z,4.18
2022-10-23T17:24:39.909Z,3.55
2022-10-23T17:27:06.312Z,3.78
2022-10-23T17:29:32.630Z,3.78
2022-10-23T17:31:59.028Z,3.80
2022-10-23T17:34:25.368Z,3.55
2022-10-23T17:36:52.917Z,2.92
2022-10-23T17:39:20.991Z,3.55
2022-10-23T17:41:47.608Z,3.28
2022-10-23T17:44:14.090Z,3.72
2022-10-23T17:46:40.394Z,3.80
2022-10-23T17:49:06.826Z,3.50
2022-10-23T17:51:34.051Z,3.22
2022-10-23T17:54:01.999Z,3.33
2022-10-23T17:56:29.466Z,3.72
2022-10-23T17:58:59.411Z,3.00
2022-10-23T18:01:26.954Z,6.32
2022-10-23T18:03:54.064Z,3.40
2022-10-23T18:06:24.600Z,3.20
2022-10-23T18:08:54.325Z,3.22
2022-10-23T18:11:28.043Z,3.17
2022-10-23T18:13:54.904Z,3.05
2022-10-23T18:16:21.517Z,3.58
2022-10-23T18:18:48.299Z,2.95
2022-10-23T18:21:15.440Z,3.40
2022-10-23T18:23:41.722Z,3.13
2022-10-23T18:26:15.859Z,2.90
2022-10-23T18:28:42.658Z,2.90
2022-10-23T18:31:09.913Z,3.30
2022-10-23T18:33:36.234Z,2.85
2022-10-23T18:36:02.567Z,3.35
2022-10-23T18:38:30.134Z,3.05
2022-10-23T18:40:56.890Z,3.28
2022-10-23T18:43:41.895Z,3.28
2022-10-23T18:46:10.306Z,3.83
2022-10-23T18:48:36.641Z,3.70
2022-10-23T18:51:03.272Z,3.15
2022-10-23T18:53:29.518Z,3.45
2022-10-23T18:55:56.047Z,3.63
2022-10-23T18:58:22.356Z,3.80
2022-10-23T19:00:48.619Z,3.20
2022-10-23T19:03:15.153Z,3.20
2022-10-23T19:05:45.658Z,3.53
2022-10-23T19:08:12.591Z,3.90
2022-10-23T19:10:39.761Z,3.55
2022-10-23T19:13:06.072Z,3.25
2022-10-23T19:15:33.263Z,3.15
2022-10-23T19:18:00.187Z,3.17
2022-10-23T19:22:58.694Z,3.53
2022-10-23T19:25:27.067Z,3.40
2022-10-23T19:27:54.799Z,3.25
2022-10-23T19:30:22.742Z,3.38
2022-10-23T19:32:49.974Z,3.42
2022-10-23T19:35:17.260Z,3.25
2022-10-23T19:37:43.799Z,3.38
2022-10-23T19:40:10.873Z,2.92
2022-10-23T19:42:38.396Z,3.95
2022-10-23T19:45:05.554Z,2.85
2022-10-23T19:47:31.933Z,3.00
2022-10-23T19:49:58.193Z,3.55
2022-10-23T19:52:24.446Z,3.25
2022-10-23T19:54:51.059Z,2.90
2022-10-23T19:57:20.554Z,2.60
2022-10-23T19:59:52.251Z,3.28
2022-10-23T20:02:20.156Z,2.88
2022-10-23T20:04:46.809Z,3.22
2022-10-23T20:07:13.504Z,2.83
2022-10-23T20:09:40.010Z,2.65
2022-10-23T20:12:06.441Z,3.17
2022-10-23T20:14:33.194Z,3.17
2022-10-23T20:16:59.999Z,3.17
2022-10-23T20:19:26.596Z,3.35
2022-10-23T20:21:52.927Z,2.50
2022-10-23T20:24:19.968Z,3.47
2022-10-23T20:26:47.699Z,3.13
2022-10-23T20:29:14.151Z,2.17
2022-10-23T20:31:40.669Z,2.72
2022-10-23T20:34:07.275Z,2.22
2022-10-23T20:36:34.880Z,2.92
2022-10-23T20:39:02.571Z,1.90
2022-10-23T20:41:29.063Z,1.80
2022-10-23T20:43:56.107Z,1.83
2022-10-23T20:46:22.857Z,1.65
2022-10-23T20:48:49.645Z,1.40
2022-10-23T20:51:17.295Z,1.30
2022-10-23T20:53:44.163Z,1.30
2022-10-23T20:56:12.787Z,1.20
2022-10-23T20:58:39.095Z,2.58
2022-10-23T21:01:06.563Z,1.30
2022-10-23T21:03:32.947Z,1.40
2022-10-23T21:06:06.583Z,1.48
2022-10-23T21:08:33.048Z,1.13
2022-10-23T21:10:59.754Z,0.88
2022-10-23T21:13:26.450Z,1.00
2022-10-23T21:15:52.880Z,1.48
2022-10-23T21:18:26.444Z,1.40
2022-10-23T21:21:00.126Z,0.80
2022-10-23T21:23:28.370Z,1.10
2022-10-23T21:25:54.632Z,1.33
2022-10-23T21:28:21.170Z,1.33
2022-10-23T21:30:47.467Z,1.70
2022-10-23T21:33:14.284Z,1.27
2022-10-23T21:35:47.517Z,1.30
2022-10-23T21:38:24.469Z,1.30
2022-10-23T21:40:51.142Z,1.20
2022-10-23T21:43:17.848Z,0.80
2022-10-23T21:45:44.343Z,1.10
2022-10-23T21:48:10.641Z,1.27
2022-10-23T21:50:36.990Z,1.42
2022-10-23T21:53:03.303Z,1.30
2022-10-23T21:55:30.065Z,1.20
2022-10-23T21:57:56.727Z,0.73
2022-10-23T22:00:23.256Z,0.90
2022-10-23T22:02:49.829Z,1.35
2022-10-23T22:05:16.678Z,1.05
2022-10-23T22:07:46.414Z,1.10
2022-10-23T22:10:12.863Z,1.10
2022-10-23T22:12:39.465Z,1.10
2022-10-23T22:15:06.081Z,1.10
2022-10-23T22:17:32.323Z,1.20
2022-10-23T22:19:58.551Z,0.95
2022-10-23T22:22:24.789Z,1.00
2022-10-23T22:24:51.394Z,1.40
2022-10-23T22:27:17.794Z,1.17
2022-10-23T22:29:44.043Z,1.25
2022-10-23T22:32:10.311Z,2.30
2022-10-23T22:34:53.378Z,1.13
2022-10-23T22:37:20.190Z,1.35
2022-10-23T22:39:49.487Z,2.08
2022-10-23T22:42:15.793Z,1.83
2022-10-23T22:44:42.056Z,1.10
2022-10-23T22:47:08.343Z,1.20
2022-10-23T22:49:34.704Z,1.45
2022-10-23T22:52:01.019Z,1.52
2022-10-23T22:54:27.314Z,1.50
2022-10-23T22:56:53.580Z,1.08
2022-10-23T22:59:20.147Z,1.70
2022-10-23T23:01:47.429Z,1.52
2022-10-23T23:04:37.706Z,1.60
2022-10-23T23:07:04.509Z,1.48
2022-10-23T23:09:30.847Z,1.33
2022-10-23T23:11:57.166Z,2.30
2022-10-23T23:14:24.502Z,1.42
2022-10-23T23:16:52.151Z,1.65
2022-10-23T23:19:18.414Z,1.55
2022-10-23T23:21:44.683Z,1.40
2022-10-23T23:24:11.376Z,1.70
2022-10-23T23:26:37.657Z,1.60
2022-10-23T23:29:04.014Z,1.23
2022-10-23T23:31:30.271Z,1.60
2022-10-23T23:33:56.995Z,1.75
2022-10-23T23:36:24.779Z,1.70
2022-10-23T23:38:51.785Z,2.28
2022-10-23T23:41:19.380Z,3.22
2022-10-23T23:43:45.899Z,1.80
2022-10-23T23:46:12.867Z,2.05
2022-10-23T23:48:39.262Z,1.77
2022-10-23T23:51:05.945Z,2.17
2022-10-23T23:53:32.336Z,3.28
2022-10-23T23:55:58.722Z,2.08
2022-10-23T23:58:24.957Z,2.55
